createdAt,value
2022-09-23T00:03:01.857Z,7.9
2022-09-23T00:17:04.390Z,7.8
2022-09-23T00:19:04.158Z,7.8
2022-09-23T00:21:07.473Z,7.7
2022-09-23T00:23:07.343Z,7.7
2022-09-23T00:25:07.198Z,7.7
2022-09-23T00:27:07.079Z,7.7
2022-09-23T00:29:06.946Z,7.6
2022-09-23T00:31:06.927Z,7.6
2022-09-23T00:33:06.693Z,7.6
2022-09-23T00:35:10.108Z,7.6
2022-09-23T00:37:09.968Z,7.6
2022-09-23T00:39:09.903Z,7.6
2022-09-23T00:41:09.776Z,7.6
2022-09-23T00:43:09.699Z,7.7
2022-09-23T00:45:09.735Z,7.7
2022-09-23T00:47:09.513Z,7.8
2022-09-23T00:49:12.947Z,7.7
2022-09-23T00:51:12.824Z,7.6
2022-09-23T00:55:32.444Z,7.7
2022-09-23T00:57:32.299Z,7.6
2022-09-23T00:59:32.131Z,7.6
2022-09-23T01:01:35.486Z,7.6
2022-09-23T01:03:35.227Z,7.6
2022-09-23T01:05:35.025Z,7.5
2022-09-23T01:07:34.858Z,7.6
2022-09-23T01:09:34.759Z,7.6
2022-09-23T01:11:34.690Z,7.6
2022-09-23T01:13:34.592Z,7.6
2022-09-23T01:15:37.982Z,7.5
2022-09-23T01:17:37.867Z,7.5
2022-09-23T01:19:37.764Z,7.5
2022-09-23T01:21:37.562Z,7.5
2022-09-23T01:23:37.345Z,7.4
2022-09-23T01:25:37.156Z,7.4
2022-09-23T01:27:36.972Z,7.4
2022-09-23T01:29:40.364Z,7.4
2022-09-23T01:31:40.248Z,7.3
2022-09-23T01:33:40.169Z,7.4
2022-09-23T01:35:40.072Z,7.3
2022-09-23T01:37:39.977Z,7.3
2022-09-23T01:39:39.870Z,7.3
2022-09-23T01:41:39.688Z,7.3
2022-09-23T01:43:43.122Z,7.1
2022-09-23T01:45:44.583Z,7.2
2022-09-23T01:47:44.438Z,7.2
2022-09-23T01:50:46.029Z,7.2
2022-09-23T01:52:45.932Z,7.1
2022-09-23T01:54:45.782Z,7.1
2022-09-23T01:56:49.157Z,7
2022-09-23T01:58:49.071Z,6.9
2022-09-23T02:00:48.985Z,7.1
2022-09-23T02:02:48.890Z,7
2022-09-23T02:04:48.709Z,6.9
2022-09-23T02:06:48.633Z,6.9
2022-09-23T02:08:48.504Z,6.9
2022-09-23T02:10:51.927Z,6.8
2022-09-23T02:12:51.834Z,6.8
2022-09-23T02:14:51.729Z,6.8
2022-09-23T02:16:51.768Z,6.8
2022-09-23T02:18:53.566Z,6.8
2022-09-23T02:20:51.475Z,6.7
2022-09-23T02:22:51.392Z,6.7
2022-09-23T02:24:56.050Z,6.6
2022-09-23T02:26:54.733Z,6.7
2022-09-23T02:28:54.662Z,6.7
2022-09-23T02:30:54.562Z,6.7
2022-09-23T02:36:54.085Z,6.7
2022-09-23T02:38:57.477Z,6.8
2022-09-23T02:40:57.431Z,6.8
2022-09-23T02:42:57.346Z,6.8
2022-09-23T02:43:59.099Z,6.9
2022-09-23T02:45:59.106Z,6.8
2022-09-23T02:47:58.900Z,6.8
2022-09-23T02:49:58.820Z,6.9
2022-09-23T02:52:02.239Z,6.9
2022-09-23T03:02:01.875Z,6.9
2022-09-23T03:04:01.668Z,6.9
2022-09-23T03:06:05.099Z,7
2022-09-23T03:08:04.968Z,7
2022-09-23T03:10:04.830Z,7
2022-09-23T03:12:04.739Z,6.9
2022-09-23T03:14:04.687Z,6.9
2022-09-23T03:20:07.880Z,6.9
2022-09-23T03:22:07.800Z,6.9
2022-09-23T03:24:07.757Z,6.9
2022-09-23T03:26:07.653Z,6.8
2022-09-23T03:28:07.558Z,6.8
2022-09-23T03:32:07.475Z,6.8
2022-09-23T03:34:10.706Z,6.9
2022-09-23T03:36:10.632Z,6.8
2022-09-23T03:38:10.563Z,6.8
2022-09-23T03:39:12.258Z,6.8
2022-09-23T03:41:12.183Z,6.8
2022-09-23T03:43:12.094Z,6.7
2022-09-23T03:45:11.954Z,6.7
2022-09-23T03:47:15.380Z,6.8
2022-09-23T03:49:15.284Z,6.7
2022-09-23T03:51:15.230Z,6.7
2022-09-23T03:53:15.120Z,6.7
2022-09-23T03:55:15.076Z,6.7
2022-09-23T03:57:14.968Z,6.7
2022-09-23T03:59:14.921Z,6.6
2022-09-23T04:01:18.358Z,6.7
2022-09-23T04:03:18.248Z,6.6
2022-09-23T04:05:18.138Z,6.6
2022-09-23T04:07:18.080Z,6.7
2022-09-23T04:09:17.988Z,6.7
2022-09-23T04:11:17.886Z,6.6
2022-09-23T04:13:17.713Z,6.6
2022-09-23T04:15:21.165Z,6.6
2022-09-23T04:17:21.076Z,6.7
2022-09-23T04:19:21.005Z,6.7
2022-09-23T04:21:20.938Z,6.7
2022-09-23T04:23:20.864Z,6.8
2022-09-23T04:25:20.986Z,6.8
2022-09-23T04:27:20.701Z,6.8
2022-09-23T04:29:24.127Z,6.8
2022-09-23T04:31:24.138Z,6.9
2022-09-23T04:33:23.970Z,6.8
2022-09-23T04:35:46.259Z,6.9
2022-09-23T04:37:46.113Z,6.9
2022-09-23T04:39:45.999Z,6.9
2022-09-23T04:41:49.324Z,6.9
2022-09-23T04:43:49.256Z,6.9
2022-09-23T04:45:49.171Z,6.9
2022-09-23T04:47:49.075Z,6.9
2022-09-23T04:49:48.992Z,6.8
2022-09-23T04:51:48.893Z,6.9
2022-09-23T04:53:48.742Z,6.9
2022-09-23T04:55:52.159Z,6.8
2022-09-23T04:57:52.136Z,6.8
2022-09-23T04:59:52.022Z,6.8
2022-09-23T05:01:52.046Z,6.9
2022-09-23T05:03:51.851Z,6.9
2022-09-23T05:05:51.748Z,6.9
2022-09-23T05:07:51.661Z,6.8
2022-09-23T05:09:55.049Z,6.9
2022-09-23T05:11:54.855Z,6.9
2022-09-23T05:13:54.729Z,7
2022-09-23T05:15:54.664Z,7
2022-09-23T05:17:54.566Z,7
2022-09-23T05:19:54.497Z,7.1
2022-09-23T05:21:54.432Z,7.1
2022-09-23T05:23:57.742Z,7.1
2022-09-23T05:25:57.651Z,7.1
2022-09-23T05:27:57.567Z,7.2
2022-09-23T05:28:59.395Z,7.2
2022-09-23T05:30:59.243Z,7.2
2022-09-23T05:37:02.414Z,7.4
2022-09-23T05:39:02.414Z,7.5
2022-09-23T05:41:02.273Z,7.5
2022-09-23T05:43:02.173Z,7.6
2022-09-23T05:49:03.335Z,7.7
2022-09-23T05:51:05.236Z,7.7
2022-09-23T05:57:05.151Z,7.8
2022-09-23T06:05:07.949Z,8
2022-09-23T06:07:07.819Z,8
2022-09-23T06:09:07.809Z,8.1
2022-09-23T06:11:07.660Z,8.1
2022-09-23T06:13:07.449Z,8.2
2022-09-23T06:15:07.404Z,8.2
2022-09-23T06:17:07.260Z,8.3
2022-09-23T06:21:10.485Z,8.3
2022-09-23T06:23:10.665Z,8.4
2022-09-23T06:24:14.861Z,8.5
2022-09-23T06:26:11.832Z,8.5
2022-09-23T06:28:11.750Z,8.6
2022-09-23T06:30:11.632Z,8.7
2022-09-23T06:32:14.935Z,8.8
2022-09-23T06:34:14.994Z,8.8
2022-09-23T06:36:23.807Z,8.9
2022-09-23T06:38:14.501Z,9
2022-09-23T06:40:14.441Z,9.1
2022-09-23T06:42:14.205Z,9.2
2022-09-23T06:44:14.022Z,9.3
2022-09-23T06:46:17.451Z,9.4
2022-09-23T06:48:17.281Z,9.4
2022-09-23T06:50:17.071Z,9.5
2022-09-23T06:52:16.891Z,9.6
2022-09-23T06:54:16.786Z,9.6
2022-09-23T06:56:16.642Z,9.6
2022-09-23T06:58:16.434Z,9.6
2022-09-23T07:00:19.719Z,9.6
2022-09-23T07:02:19.611Z,9.6
2022-09-23T07:04:19.389Z,9.6
2022-09-23T07:06:19.191Z,9.7
2022-09-23T07:12:18.522Z,10
2022-09-23T07:14:21.805Z,10
2022-09-23T07:16:21.683Z,10.1
2022-09-23T07:18:21.373Z,10.3
2022-09-23T07:19:23.030Z,10.5
2022-09-23T07:21:22.794Z,10.5
2022-09-23T07:23:22.579Z,10.6
2022-09-23T07:25:22.360Z,10.7
2022-09-23T07:27:25.533Z,10.9
2022-09-23T07:29:25.295Z,11
2022-09-23T07:31:34.953Z,11.1
2022-09-23T07:33:32.174Z,11.2
2022-09-23T07:35:26.128Z,11.3
2022-09-23T07:37:25.875Z,11.5
2022-09-23T07:39:25.648Z,11.6
2022-09-23T07:41:28.793Z,11.6
2022-09-23T07:43:28.577Z,11.6
2022-09-23T07:51:29.877Z,12.2
2022-09-23T07:53:27.348Z,12.5
2022-09-23T07:57:30.210Z,13
2022-09-23T07:59:29.921Z,13.3
2022-09-23T08:01:29.849Z,13.4
2022-09-23T08:03:29.335Z,13.4
2022-09-23T08:05:29.060Z,13.4
2022-09-23T08:07:28.793Z,13.4
2022-09-23T08:09:31.923Z,13.4
2022-09-23T08:11:31.602Z,13.4
2022-09-23T08:13:31.303Z,13.5
2022-09-23T08:15:55.458Z,13.7
2022-09-23T08:17:52.909Z,13.8
2022-09-23T08:19:52.607Z,13.7
2022-09-23T08:21:55.679Z,13.5
2022-09-23T08:23:55.369Z,13.6
2022-09-23T08:25:57.194Z,13.6
2022-09-23T08:27:54.704Z,13.7
2022-09-23T08:29:54.405Z,13.7
2022-09-23T08:31:54.082Z,13.8
2022-09-23T08:33:53.742Z,14
2022-09-23T08:35:56.843Z,14.3
2022-09-23T08:37:56.522Z,14.3
2022-09-23T08:39:56.141Z,14.5
2022-09-23T08:41:58.784Z,14.6
2022-09-23T08:43:55.462Z,14.9
2022-09-23T08:45:55.185Z,15
2022-09-23T08:47:54.772Z,15.2
2022-09-23T08:49:57.827Z,15.5
2022-09-23T08:51:57.461Z,15.6
2022-09-23T08:53:57.122Z,15.6
2022-09-23T08:55:56.738Z,15.6
2022-09-23T08:58:23.543Z,15.6
2022-09-23T08:59:56.002Z,15.6
2022-09-23T09:01:55.624Z,15.7
2022-09-23T09:03:58.647Z,15.6
2022-09-23T09:05:58.250Z,15.7
2022-09-23T09:07:57.870Z,15.8
2022-09-23T09:12:58.571Z,15.7
2022-09-23T09:17:01.661Z,15.8
2022-09-23T09:19:00.783Z,15.8
2022-09-23T09:21:00.363Z,15.7
2022-09-23T09:29:02.535Z,16.4
2022-09-23T09:31:01.773Z,16.7
2022-09-23T09:33:01.984Z,16.8
2022-09-23T09:37:04.746Z,17
2022-09-23T09:45:03.667Z,17.1
2022-09-23T09:47:03.363Z,17.1
2022-09-23T09:49:02.915Z,17.2
2022-09-23T09:51:02.400Z,17.3
2022-09-23T09:55:01.409Z,17.4
2022-09-23T09:57:00.923Z,17.3
2022-09-23T09:59:03.789Z,17.5
2022-09-23T10:01:03.450Z,17.6
2022-09-23T10:03:02.920Z,17.6
2022-09-23T10:04:04.489Z,17.4
2022-09-23T10:06:03.927Z,17.5
2022-09-23T10:08:03.430Z,17.5
2022-09-23T10:10:21.836Z,17.5
2022-09-23T10:12:05.901Z,17.5
2022-09-23T10:14:05.392Z,17.5
2022-09-23T10:16:04.902Z,17.6
2022-09-23T10:18:04.445Z,17.9
2022-09-23T10:20:03.963Z,18.1
2022-09-23T10:22:03.455Z,18.3
2022-09-23T10:24:02.959Z,18.2
2022-09-23T10:26:05.905Z,18.6
2022-09-23T10:28:08.022Z,18.6
2022-09-23T10:30:04.925Z,18.4
2022-09-23T10:32:04.398Z,18.5
2022-09-23T10:34:03.906Z,18.8
2022-09-23T10:36:03.407Z,18.9
2022-09-23T10:38:02.882Z,19.2
2022-09-23T10:40:05.711Z,19.2
2022-09-23T10:42:05.101Z,19
2022-09-23T10:44:04.584Z,18.9
2022-09-23T10:46:04.004Z,18.9
2022-09-23T10:48:03.445Z,19
2022-09-23T10:50:02.903Z,19.2
2022-09-23T10:52:02.354Z,19.5
2022-09-23T10:54:05.201Z,19.1
2022-09-23T10:56:04.653Z,19.2
2022-09-23T10:58:04.109Z,19.2
2022-09-23T10:59:05.533Z,19.5
2022-09-23T11:01:05.078Z,19.4
2022-09-23T11:03:04.451Z,19.2
2022-09-23T11:05:03.995Z,19.3
2022-09-23T11:07:06.712Z,18.7
2022-09-23T11:09:06.144Z,18.6
2022-09-23T11:11:05.517Z,18.4
2022-09-23T11:13:04.938Z,18.4
2022-09-23T11:15:04.381Z,18.6
2022-09-23T11:19:03.198Z,18.8
2022-09-23T11:23:05.425Z,18.4
2022-09-23T11:25:04.934Z,18.4
2022-09-23T11:27:04.325Z,18.6
2022-09-23T11:29:04.037Z,18.4
2022-09-23T11:31:03.497Z,18.3
2022-09-23T11:35:05.523Z,17.8
2022-09-23T11:37:04.991Z,17.6
2022-09-23T11:39:04.444Z,17.6
2022-09-23T11:41:04.012Z,17.7
2022-09-23T11:43:03.398Z,17.6
2022-09-23T11:45:02.874Z,17.5
2022-09-23T11:47:02.375Z,17.5
2022-09-23T11:49:05.268Z,17.7
2022-09-23T11:51:04.756Z,17.7
2022-09-23T11:53:04.245Z,17.9
2022-09-23T11:55:25.648Z,17.7
2022-09-23T11:57:25.161Z,17.7
2022-09-23T11:59:35.249Z,17.8
2022-09-23T12:01:35.433Z,17.8
2022-09-23T12:03:39.416Z,17.9
2022-09-23T12:05:26.626Z,18
2022-09-23T12:07:25.931Z,18
2022-09-23T12:09:47.285Z,18.2
2022-09-23T12:11:24.947Z,18.3
2022-09-23T12:13:24.463Z,18.5
2022-09-23T12:15:27.402Z,18.8
2022-09-23T12:17:26.875Z,18.8
2022-09-23T12:19:26.382Z,18.9
2022-09-23T12:21:48.690Z,19
2022-09-23T12:23:25.404Z,18.9
2022-09-23T12:25:24.903Z,18.8
2022-09-23T12:27:24.389Z,18.7
2022-09-23T12:31:26.808Z,18.9
2022-09-23T12:33:26.284Z,18.9
2022-09-23T12:35:25.912Z,18.8
2022-09-23T12:37:25.250Z,18.9
2022-09-23T12:39:24.770Z,18.9
2022-09-23T12:41:24.255Z,19.3
2022-09-23T12:43:27.145Z,19.8
2022-09-23T12:45:26.682Z,19.7
2022-09-23T12:47:25.908Z,19.4
2022-09-23T12:48:27.344Z,19.2
2022-09-23T12:50:26.705Z,19.4
2022-09-23T12:52:26.068Z,19.3
2022-09-23T12:54:25.447Z,19.2
2022-09-23T12:56:28.353Z,19.5
2022-09-23T12:58:27.821Z,19.4
2022-09-23T13:00:30.960Z,19.3
2022-09-23T13:02:26.779Z,19.3
2022-09-23T13:04:26.101Z,19.5
2022-09-23T13:06:25.575Z,19.5
2022-09-23T13:08:24.926Z,19.4
2022-09-23T13:10:27.799Z,19.2
2022-09-23T13:12:27.170Z,19.2
2022-09-23T13:14:27.707Z,19.1
2022-09-23T13:16:27.623Z,19.2
2022-09-23T13:18:26.909Z,19.1
2022-09-23T13:20:26.265Z,19.1
2022-09-23T13:22:25.602Z,19.3
2022-09-23T13:26:27.824Z,19.2
2022-09-23T13:28:27.179Z,19.3
2022-09-23T13:30:26.999Z,19.5
2022-09-23T13:32:26.089Z,19.3
2022-09-23T13:34:25.542Z,19.1
2022-09-23T13:36:24.983Z,19.1
2022-09-23T13:38:27.776Z,19.5
2022-09-23T13:40:27.327Z,19.5
2022-09-23T13:43:28.002Z,19.5
2022-09-23T13:45:27.509Z,19.3
2022-09-23T13:47:26.818Z,19.2
2022-09-23T13:49:26.265Z,19.1
2022-09-23T13:51:29.031Z,19.2
2022-09-23T13:53:28.490Z,19.3
2022-09-23T13:55:27.930Z,19.2
2022-09-23T13:57:27.390Z,19.4
2022-09-23T13:59:26.840Z,19.4
2022-09-23T14:01:26.236Z,19.2
2022-09-23T14:03:25.632Z,19
2022-09-23T14:05:28.503Z,18.8
2022-09-23T14:07:27.848Z,18.8
2022-09-23T14:09:27.187Z,18.7
2022-09-23T14:11:26.608Z,18.7
2022-09-23T14:13:26.262Z,18.9
2022-09-23T14:15:25.305Z,18.7
2022-09-23T14:17:24.645Z,18.7
2022-09-23T14:19:27.334Z,18.7
2022-09-23T14:21:26.679Z,18.6
2022-09-23T14:23:26.114Z,18.4
2022-09-23T14:25:25.452Z,18.4
2022-09-23T14:27:24.901Z,18.4
2022-09-23T14:29:24.264Z,18.5
2022-09-23T14:31:23.799Z,18.6
2022-09-23T14:37:25.256Z,18.4
2022-09-23T14:38:26.597Z,18.4
2022-09-23T14:40:26.075Z,18.3
2022-09-23T14:42:25.534Z,18.4
2022-09-23T14:44:24.948Z,18.4
2022-09-23T14:48:27.245Z,18.2
2022-09-23T14:54:25.425Z,18.2
2022-09-23T14:58:24.324Z,18.2
2022-09-23T15:00:27.236Z,18.1
2022-09-23T15:02:26.696Z,18.1
2022-09-23T15:04:26.183Z,18
2022-09-23T15:06:25.663Z,18.1
2022-09-23T15:08:25.148Z,18.1
2022-09-23T15:10:24.624Z,18
2022-09-23T15:12:24.143Z,17.9
2022-09-23T15:14:37.796Z,17.8
2022-09-23T15:16:26.556Z,17.8
2022-09-23T15:18:26.008Z,17.8
2022-09-23T15:20:25.517Z,17.8
2022-09-23T15:22:25.017Z,17.7
2022-09-23T15:24:24.499Z,17.7
2022-09-23T15:26:24.028Z,17.7
2022-09-23T15:28:26.907Z,17.7
2022-09-23T15:30:26.404Z,17.7
2022-09-23T15:32:25.915Z,17.6
2022-09-23T15:34:47.377Z,17.6
2022-09-23T15:36:46.876Z,17.6
2022-09-23T15:38:46.396Z,17.6
2022-09-23T15:40:49.369Z,17.6
2022-09-23T15:44:48.286Z,17.5
2022-09-23T15:46:47.817Z,17.5
2022-09-23T15:50:46.765Z,17.4
2022-09-23T15:52:46.279Z,17.4
2022-09-23T15:54:49.217Z,17.3
2022-09-23T15:56:48.734Z,17.4
2022-09-23T15:58:48.210Z,17.3
2022-09-23T16:00:51.106Z,17.3
2022-09-23T16:02:47.359Z,17.4
2022-09-23T16:10:48.752Z,17.2
2022-09-23T16:12:48.291Z,17.2
2022-09-23T16:14:47.791Z,17.2
2022-09-23T16:16:47.366Z,17.2
2022-09-23T16:18:46.837Z,17.2
2022-09-23T16:20:46.415Z,17.2
2022-09-23T16:22:49.336Z,17.2
2022-09-23T16:24:48.869Z,17.2
2022-09-23T16:26:48.414Z,17.1
2022-09-23T16:27:49.866Z,17.1
2022-09-23T16:33:48.483Z,17
2022-09-23T16:37:50.990Z,16.9
2022-09-23T16:41:50.066Z,16.8
2022-09-23T16:51:51.216Z,16.5
2022-09-23T16:53:50.748Z,16.4
2022-09-23T16:55:50.475Z,16.4
2022-09-23T16:57:49.891Z,16.3
2022-09-23T16:59:49.450Z,16.2
2022-09-23T17:01:49.083Z,16.2
2022-09-23T17:05:51.553Z,16.3
2022-09-23T17:07:51.326Z,16.3
2022-09-23T17:09:50.651Z,16.3
2022-09-23T17:11:50.244Z,16.2
2022-09-23T17:13:49.752Z,16.1
2022-09-23T17:17:52.274Z,16
2022-09-23T17:22:52.941Z,16
2022-09-23T17:24:52.511Z,16
2022-09-23T17:26:53.205Z,16
2022-09-23T17:30:54.597Z,15.9
2022-09-23T17:32:54.173Z,15.8
2022-09-23T17:34:53.747Z,15.8
2022-09-23T17:36:53.308Z,15.8
2022-09-23T17:38:52.878Z,15.8
2022-09-23T17:40:52.487Z,15.8
2022-09-23T17:42:52.031Z,15.8
2022-09-23T17:46:54.650Z,15.7
2022-09-23T17:48:54.197Z,15.6
2022-09-23T17:50:53.771Z,15.6
2022-09-23T17:52:53.324Z,15.5
2022-09-23T17:54:52.917Z,15.5
2022-09-23T17:56:52.509Z,15.5
2022-09-23T17:58:55.462Z,15.4
2022-09-23T18:00:55.150Z,15.4
2022-09-23T18:02:54.606Z,15.3
2022-09-23T18:04:54.172Z,15.3
2022-09-23T18:06:53.783Z,15.3
2022-09-23T18:08:53.349Z,15.3
2022-09-23T18:10:52.882Z,15.2
2022-09-23T18:14:55.422Z,15.2
2022-09-23T18:16:54.985Z,15.1
2022-09-23T18:17:56.478Z,15.1
2022-09-23T18:19:56.042Z,15
2022-09-23T18:21:55.596Z,15
2022-09-23T18:23:59.782Z,14.9
2022-09-23T18:25:58.131Z,14.8
2022-09-23T18:27:57.688Z,14.8
2022-09-23T18:29:57.224Z,14.7
2022-09-23T18:31:56.888Z,14.6
2022-09-23T18:33:56.374Z,14.6
2022-09-23T18:35:56.303Z,14.6
2022-09-23T18:37:55.496Z,14.5
2022-09-23T18:39:58.505Z,14.4
2022-09-23T18:41:58.027Z,14.4
2022-09-23T18:43:57.626Z,14.4
2022-09-23T18:45:57.406Z,14.3
2022-09-23T18:49:56.408Z,14.3
2022-09-23T18:55:59.178Z,14.3
2022-09-23T18:57:58.147Z,14.2
2022-09-23T18:59:57.687Z,14.2
2022-09-23T19:01:58.931Z,14.2
2022-09-23T19:10:00.569Z,14.1
2022-09-23T19:12:00.148Z,14.1
2022-09-23T19:14:21.894Z,14.1
2022-09-23T19:16:21.545Z,14
2022-09-23T19:18:21.052Z,14
2022-09-23T19:20:24.117Z,14
2022-09-23T19:22:23.696Z,14
2022-09-23T19:24:23.316Z,14
2022-09-23T19:26:22.895Z,13.9
2022-09-23T19:28:22.547Z,13.9
2022-09-23T19:36:24.376Z,13.7
2022-09-23T19:38:23.974Z,13.8
2022-09-23T19:40:23.634Z,13.8
2022-09-23T19:42:23.201Z,13.7
2022-09-23T19:44:22.821Z,13.8
2022-09-23T19:46:22.620Z,13.8
2022-09-23T19:48:25.534Z,13.7
2022-09-23T19:50:25.162Z,13.8
2022-09-23T19:52:24.819Z,13.7
2022-09-23T19:54:24.408Z,13.7
2022-09-23T19:56:24.050Z,13.6
2022-09-23T19:58:23.690Z,13.6
2022-09-23T20:00:23.324Z,13.7
2022-09-23T20:04:26.018Z,13.6
2022-09-23T20:06:25.620Z,13.6
2022-09-23T20:07:27.130Z,13.7
2022-09-23T20:09:26.781Z,13.6
2022-09-23T20:11:28.413Z,13.7
2022-09-23T20:13:26.047Z,13.7
2022-09-23T20:15:29.129Z,13.7
2022-09-23T20:17:28.739Z,13.7
2022-09-23T20:19:28.377Z,13.7
2022-09-23T20:21:28.029Z,13.7
2022-09-23T20:23:27.658Z,13.7
2022-09-23T20:25:27.321Z,13.7
2022-09-23T20:27:26.957Z,13.7
2022-09-23T20:29:30.000Z,13.8
2022-09-23T20:31:29.768Z,13.8
2022-09-23T20:37:28.596Z,13.9
2022-09-23T20:39:28.249Z,13.9
2022-09-23T20:41:27.898Z,13.9
2022-09-23T20:43:30.914Z,14.1
2022-09-23T20:45:30.595Z,14.1
2022-09-23T20:47:30.196Z,14.1
2022-09-23T20:49:29.845Z,14.1
2022-09-23T20:51:29.481Z,14.1
2022-09-23T20:53:29.161Z,14.1
2022-09-23T20:55:28.814Z,14.2
2022-09-23T20:57:31.844Z,14.3
2022-09-23T20:59:31.435Z,14.3
2022-09-23T21:01:31.321Z,14.3
2022-09-23T21:04:32.235Z,14.2
2022-09-23T21:06:31.866Z,14.2
2022-09-23T21:08:31.504Z,14.3
2022-09-23T21:10:34.505Z,14.3
2022-09-23T21:12:34.183Z,14.2
2022-09-23T21:14:33.812Z,14.2
2022-09-23T21:16:33.470Z,14.1
2022-09-23T21:18:33.069Z,14.1
2022-09-23T21:20:32.777Z,14.1
2022-09-23T21:22:32.342Z,14.1
2022-09-23T21:25:03.782Z,14.1
2022-09-23T21:26:35.002Z,14.1
2022-09-23T21:28:34.641Z,14.2
2022-09-23T21:32:33.891Z,14.1
2022-09-23T21:34:33.527Z,14.2
2022-09-23T21:36:33.165Z,14.1
2022-09-23T21:38:36.181Z,14.1
2022-09-23T21:40:35.883Z,14
2022-09-23T21:44:35.086Z,14.1
2022-09-23T21:46:34.790Z,14.1
2022-09-23T21:48:34.350Z,14
2022-09-23T21:50:33.976Z,14
2022-09-23T21:54:36.653Z,14.1
2022-09-23T21:59:37.471Z,14
2022-09-23T22:01:37.092Z,14
2022-09-23T22:03:36.828Z,14
2022-09-23T22:05:39.752Z,14
2022-09-23T22:07:39.388Z,14
2022-09-23T22:09:38.990Z,14
2022-09-23T22:11:38.616Z,14
2022-09-23T22:13:38.243Z,14
2022-09-23T22:15:37.840Z,14
2022-09-23T22:17:37.471Z,14
2022-09-23T22:19:45.940Z,14
2022-09-23T22:21:40.114Z,14
2022-09-23T22:23:39.743Z,14
2022-09-23T22:25:39.489Z,14
2022-09-23T22:27:38.984Z,13.9
2022-09-23T22:41:39.689Z,14
2022-09-23T22:43:39.326Z,13.9
2022-09-23T22:45:38.970Z,13.9
2022-09-23T22:51:41.267Z,13.9
2022-09-23T22:54:00.409Z,13.9
2022-09-23T22:55:59.968Z,13.9
2022-09-23T22:58:15.378Z,13.9
2022-09-23T23:00:02.661Z,13.9
2022-09-23T23:02:02.477Z,13.9
2022-09-23T23:04:02.058Z,13.9
2022-09-23T23:06:01.544Z,13.8
2022-09-23T23:08:01.167Z,13.8
2022-09-23T23:10:00.788Z,13.7
2022-09-23T23:12:00.463Z,13.8
2022-09-23T23:14:03.457Z,13.7
2022-09-23T23:16:03.198Z,13.7
2022-09-23T23:22:02.002Z,13.8
2022-09-23T23:30:03.961Z,13.8
2022-09-23T23:32:03.626Z,13.8
2022-09-23T23:34:03.423Z,13.8
2022-09-23T23:38:02.548Z,13.8
2022-09-23T23:40:02.201Z,13.8
2022-09-23T23:42:05.239Z,13.7
2022-09-23T23:44:04.924Z,13.7
2022-09-23T23:47:06.117Z,13.7
2022-09-23T23:49:05.674Z,13.7
2022-09-23T23:51:05.350Z,13.7
2022-09-23T23:53:04.987Z,13.7
2022-09-23T23:55:08.059Z,13.6
2022-09-23T23:59:07.341Z,13.6
